Time,TemperatureF,DewpointF,PressureIn,WindDirection,WindDirectionDegrees,WindSpeedMPH,WindSpeedGustMPH,Humidity,HourlyPrecipIn,Conditions,Clouds,dailyrainin,SoftwareType,DateUTC
2013-01-14 07:52:00,-9.0,-12.0,-100.00,NNW,338,1.0,6.0,88,-99.99,,,-99.99,,2013-01-14 14:52:00,
2013-01-14 08:03:00,-9.0,-12.0,-100.00,NNW,328,3.0,11.0,88,-99.99,,,-99.99,,2013-01-14 15:03:00,
2013-01-14 08:12:00,-9.0,-12.0,-100.00,NNW,328,3.0,11.0,88,-99.99,,,-99.99,,2013-01-14 15:12:00,
2013-01-14 08:23:00,-9.0,-12.0,-100.00,NNW,336,0.0,4.0,88,-99.99,,,-99.99,,2013-01-14 15:23:00,
2013-01-14 08:33:00,-9.0,-11.0,-100.00,NNW,331,2.0,8.0,89,-99.99,,,-99.99,,2013-01-14 15:33:00,
2013-01-14 08:43:00,-9.0,-11.0,-100.00,NNW,331,2.0,8.0,89,-99.99,,,-99.99,,2013-01-14 15:43:00,
2013-01-14 08:53:00,-9.0,-11.0,-100.00,NNW,327,0.0,1.0,89,-99.99,,,-99.99,,2013-01-14 15:53:00,
2013-01-14 09:02:00,-9.0,-12.0,-100.00,NNW,335,4.0,11.0,88,-99.99,,,-99.99,,2013-01-14 16:02:00,
2013-01-14 09:12:00,-9.0,-12.0,-100.00,NNW,335,4.0,11.0,88,-99.99,,,-99.99,,2013-01-14 16:12:00,
2013-01-14 09:23:00,-9.0,-11.0,-100.00,NNW,342,0.0,5.0,89,-99.99,,,-99.99,,2013-01-14 16:23:00,
2013-01-14 09:33:00,-8.0,-10.0,-100.00,NNW,344,1.0,5.0,89,-99.99,,,-99.99,,2013-01-14 16:33:00,
2013-01-14 09:43:00,-8.0,-10.0,-100.00,NNW,344,1.0,5.0,89,-99.99,,,-99.99,,2013-01-14 16:43:00,
2013-01-14 09:53:00,-8.0,-10.0,-100.00,NNW,345,1.0,3.0,89,-99.99,,,-99.99,,2013-01-14 16:53:00,
2013-01-14 10:03:00,-8.0,-10.0,-100.00,North,352,1.0,3.0,89,-99.99,,,-99.99,,2013-01-14 17:03:00,
2013-01-14 10:12:00,-8.0,-10.0,-100.00,North,352,1.0,3.0,89,-99.99,,,-99.99,,2013-01-14 17:12:00,
2013-01-14 10:22:00,-8.0,-10.0,-100.00,North,349,1.0,2.0,89,-99.99,,,-99.99,,2013-01-14 17:22:00,
2013-01-14 10:33:00,-8.0,-10.0,-100.00,NNW,348,1.0,4.0,89,-99.99,,,-99.99,,2013-01-14 17:33:00,
2013-01-14 10:42:00,-8.0,-10.0,-100.00,NNW,348,1.0,4.0,89,-99.99,,,-99.99,,2013-01-14 17:42:00,
2013-01-14 10:53:00,-8.0,-10.0,-100.00,North,352,1.0,2.0,89,-99.99,,,-99.99,,2013-01-14 17:53:00,
2013-01-14 11:02:00,-8.0,-10.0,-100.00,North,353,1.0,4.0,89,-99.99,,,-99.99,,2013-01-14 18:02:00,
2013-01-14 11:12:00,-8.0,-10.0,-100.00,North,353,1.0,4.0,89,-99.99,,,-99.99,,2013-01-14 18:12:00,
2013-01-14 11:22:00,-8.0,-10.0,-100.00,NNW,345,1.0,4.0,89,-99.99,,,-99.99,,2013-01-14 18:22:00,
2013-01-14 11:33:00,-8.0,-10.0,-100.00,NNW,341,2.0,5.0,89,-99.99,,,-99.99,,2013-01-14 18:33:00,
2013-01-14 11:42:00,-8.0,-10.0,-100.00,NNW,341,2.0,5.0,89,-99.99,,,-99.99,,2013-01-14 18:42:00,
2013-01-14 11:52:00,-7.0,-9.0,-100.00,North,7,2.0,3.0,89,-99.99,,,-99.99,,2013-01-14 18:52:00,
2013-01-14 12:02:00,-6.0,-9.0,-100.00,North,353,1.0,3.0,88,-99.99,,,-99.99,,2013-01-14 19:02:00,
2013-01-14 12:12:00,-6.0,-9.0,-100.00,North,353,1.0,3.0,88,-99.99,,,-99.99,,2013-01-14 19:12:00,
2013-01-14 12:22:00,-5.0,-7.0,-100.00,North,6,1.0,4.0,89,-99.99,,,-99.99,,2013-01-14 19:22:00,
2013-01-14 12:32:00,-4.0,-7.0,-100.00,North,355,1.0,8.0,87,-99.99,,,-99.99,,2013-01-14 19:32:00,
2013-01-14 12:42:00,-4.0,-7.0,-100.00,North,355,1.0,8.0,87,-99.99,,,-99.99,,2013-01-14 19:42:00,
2013-01-14 12:52:00,-5.0,-8.0,-100.00,North,349,1.0,7.0,87,-99.99,,,-99.99,,2013-01-14 19:52:00,
2013-01-14 13:03:00,-6.0,-9.0,-100.00,North,350,1.0,6.0,87,-99.99,,,-99.99,,2013-01-14 20:03:00,
2013-01-14 13:12:00,-6.0,-9.0,-100.00,North,350,1.0,6.0,87,-99.99,,,-99.99,,2013-01-14 20:12:00,
2013-01-14 13:22:00,-6.0,-8.0,-100.00,North,360,1.0,3.0,89,-99.99,,,-99.99,,2013-01-14 20:22:00,
2013-01-14 13:33:00,-5.0,-7.0,-100.00,NNW,342,1.0,3.0,89,-99.99,,,-99.99,,2013-01-14 20:33:00,
2013-01-14 13:42:00,-5.0,-7.0,-100.00,NNW,342,1.0,3.0,89,-99.99,,,-99.99,,2013-01-14 20:42:00,
2013-01-14 13:53:00,-6.0,-8.0,-100.00,NNW,344,1.0,5.0,89,-99.99,,,-99.99,,2013-01-14 20:53:00,
2013-01-14 14:02:00,-5.0,-7.0,-100.00,North,350,3.0,11.0,89,-99.99,,,-99.99,,2013-01-14 21:02:00,
2013-01-14 14:12:00,-5.0,-7.0,-100.00,North,350,3.0,11.0,89,-99.99,,,-99.99,,2013-01-14 21:12:00,
2013-01-14 14:22:00,-4.0,-7.0,-100.00,NNW,342,1.0,6.0,88,-99.99,,,-99.99,,2013-01-14 21:22:00,
2013-01-14 14:32:00,-5.0,-7.0,-100.00,NNW,344,1.0,4.0,89,-99.99,,,-99.99,,2013-01-14 21:32:00,
2013-01-14 14:42:00,-5.0,-7.0,-100.00,NNW,344,1.0,4.0,89,-99.99,,,-99.99,,2013-01-14 21:42:00,
2013-01-14 14:53:00,-5.0,-7.0,-100.00,NNW,345,1.0,2.0,89,-99.99,,,-99.99,,2013-01-14 21:53:00,
2013-01-14 15:02:00,-5.0,-7.0,-100.00,North,5,1.0,2.0,89,-99.99,,,-99.99,,2013-01-14 22:02:00,
2013-01-14 15:12:00,-5.0,-7.0,-100.00,North,5,1.0,2.0,89,-99.99,,,-99.99,,2013-01-14 22:12:00,
2013-01-14 15:23:00,-6.0,-8.0,-100.00,North,11,1.0,3.0,90,-99.99,,,-99.99,,2013-01-14 22:23:00,
2013-01-14 15:32:00,-5.0,-7.0,-100.00,NNE,17,1.0,4.0,90,-99.99,,,-99.99,,2013-01-14 22:32:00,
2013-01-14 15:42:00,-5.0,-7.0,-100.00,NNE,17,1.0,4.0,90,-99.99,,,-99.99,,2013-01-14 22:42:00,
2013-01-14 15:52:00,-6.0,-8.0,-100.00,North,7,1.0,2.0,90,-99.99,,,-99.99,,2013-01-14 22:52:00,
2013-01-14 16:02:00,-6.0,-8.0,-100.00,North,349,1.0,2.0,90,-99.99,,,-99.99,,2013-01-14 23:02:00,
2013-01-14 16:12:00,-6.0,-8.0,-100.00,North,349,1.0,2.0,90,-99.99,,,-99.99,,2013-01-14 23:12:00,
2013-01-14 16:22:00,-7.0,-9.0,-100.00,NNE,12,1.0,2.0,90,-99.99,,,-99.99,,2013-01-14 23:22:00,
2013-01-14 16:33:00,-7.0,-9.0,-100.00,North,357,1.0,2.0,90,-99.99,,,-99.99,,2013-01-14 23:33:00,
2013-01-14 16:42:00,-7.0,-9.0,-100.00,North,357,1.0,2.0,90,-99.99,,,-99.99,,2013-01-14 23:42:00,
2013-01-14 16:52:00,-7.0,-9.0,-100.00,NNW,337,0.0,1.0,91,-99.99,,,-99.99,,2013-01-14 23:52:00,
2013-01-14 17:02:00,-6.0,-8.0,-100.00,North,0,0.0,0.0,89,-99.99,,,-99.99,,2013-01-15 00:02:00,
2013-01-14 17:12:00,-6.0,-8.0,-100.00,North,0,0.0,0.0,89,-99.99,,,-99.99,,2013-01-15 00:12:00,
2013-01-14 17:22:00,-7.0,-9.0,-100.00,North,0,0.0,0.0,89,-99.99,,,-99.99,,2013-01-15 00:22:00,
2013-01-14 17:32:00,-6.0,-8.0,-100.00,East,79,0.0,0.0,89,-99.99,,,-99.99,,2013-01-15 00:32:00,
2013-01-14 17:43:00,-6.0,-8.0,-100.00,East,79,0.0,0.0,89,-99.99,,,-99.99,,2013-01-15 00:43:00,
2013-01-14 17:52:00,-7.0,-10.0,-100.00,East,79,0.0,0.0,88,-99.99,,,-99.99,,2013-01-15 00:52:00,
2013-01-14 18:02:00,-8.0,-10.0,-100.00,East,80,0.0,1.0,89,-99.99,,,-99.99,,2013-01-15 01:02:00,
2013-01-14 18:12:00,-8.0,-10.0,-100.00,East,80,0.0,1.0,89,-99.99,,,-99.99,,2013-01-15 01:12:00,
2013-01-14 18:22:00,-7.0,-9.0,-100.00,ENE,77,0.0,0.0,89,-99.99,,,-99.99,,2013-01-15 01:22:00,
2013-01-14 18:32:00,-7.0,-9.0,-100.00,ENE,77,0.0,0.0,89,-99.99,,,-99.99,,2013-01-15 01:32:00,
2013-01-14 18:42:00,-7.0,-9.0,-100.00,ENE,77,0.0,0.0,89,-99.99,,,-99.99,,2013-01-15 01:42:00,
2013-01-14 18:52:00,-7.0,-9.0,-100.00,NW,315,1.0,2.0,89,-99.99,,,-99.99,,2013-01-15 01:52:00,
2013-01-14 19:02:00,-7.0,-9.0,-100.00,NNW,345,0.0,5.0,89,-99.99,,,-99.99,,2013-01-15 02:02:00,
2013-01-14 19:12:00,-7.0,-9.0,-100.00,NNW,345,0.0,5.0,89,-99.99,,,-99.99,,2013-01-15 02:12:00,
2013-01-14 19:22:00,-7.0,-9.0,-100.00,ENE,70,0.0,1.0,89,-99.99,,,-99.99,,2013-01-15 02:22:00,
2013-01-14 19:32:00,-6.0,-8.0,-100.00,ENE,60,0.0,1.0,89,-99.99,,,-99.99,,2013-01-15 02:32:00,
2013-01-14 19:42:00,-6.0,-8.0,-100.00,ENE,60,0.0,1.0,89,-99.99,,,-99.99,,2013-01-15 02:42:00,
2013-01-14 19:52:00,-5.0,-8.0,-100.00,NE,44,0.0,1.0,88,-99.99,,,-99.99,,2013-01-15 02:52:00,
2013-01-14 20:02:00,-5.0,-8.0,-100.00,NNE,14,0.0,0.0,88,-99.99,,,-99.99,,2013-01-15 03:02:00,
2013-01-14 20:12:00,-5.0,-8.0,-100.00,NNE,14,0.0,0.0,88,-99.99,,,-99.99,,2013-01-15 03:12:00,
2013-01-14 20:22:00,-4.0,-7.0,-100.00,NE,40,0.0,2.0,87,-99.99,,,-99.99,,2013-01-15 03:22:00,
2013-01-14 20:32:00,-4.0,-6.0,-100.00,NNE,32,0.0,1.0,89,-99.99,,,-99.99,,2013-01-15 03:32:00,
2013-01-14 20:42:00,-4.0,-6.0,-100.00,NNE,32,0.0,1.0,89,-99.99,,,-99.99,,2013-01-15 03:42:00,
2013-01-14 20:52:00,-4.0,-6.0,-100.00,NNE,18,1.0,3.0,89,-99.99,,,-99.99,,2013-01-15 03:52:00,
2013-01-14 21:02:00,-4.0,-6.0,-100.00,North,5,1.0,2.0,90,-99.99,,,-99.99,,2013-01-15 04:02:00,
2013-01-14 21:12:00,-4.0,-6.0,-100.00,North,5,1.0,2.0,90,-99.99,,,-99.99,,2013-01-15 04:12:00,
2013-01-14 21:22:00,-4.0,-6.0,-100.00,ENE,57,0.0,2.0,90,-99.99,,,-99.99,,2013-01-15 04:22:00,
2013-01-14 21:32:00,-4.0,-6.0,-100.00,NE,48,0.0,1.0,90,-99.99,,,-99.99,,2013-01-15 04:32:00,
2013-01-14 21:42:00,-4.0,-6.0,-100.00,NE,48,0.0,1.0,90,-99.99,,,-99.99,,2013-01-15 04:42:00,
2013-01-14 21:52:00,-5.0,-7.0,-100.00,NNE,17,0.0,2.0,90,-99.99,,,-99.99,,2013-01-15 04:52:00,
2013-01-14 22:03:00,-6.0,-8.0,-100.00,NNW,330,0.0,2.0,91,-99.99,,,-99.99,,2013-01-15 05:03:00,
2013-01-14 22:12:00,-6.0,-8.0,-100.00,NNW,330,0.0,2.0,91,-99.99,,,-99.99,,2013-01-15 05:12:00,
2013-01-14 22:22:00,-5.0,-7.0,-100.00,North,8,1.0,1.0,92,-99.99,,,-99.99,,2013-01-15 05:22:00,
2013-01-14 22:33:00,-5.0,-6.0,-100.00,North,11,1.0,2.0,93,-99.99,,,-99.99,,2013-01-15 05:33:00,
2013-01-14 22:42:00,-5.0,-6.0,-100.00,North,11,1.0,2.0,93,-99.99,,,-99.99,,2013-01-15 05:42:00,
2013-01-14 22:52:00,-5.0,-6.0,-100.00,NNE,31,1.0,2.0,93,-99.99,,,-99.99,,2013-01-15 05:52:00,
2013-01-14 23:02:00,-3.0,-4.0,-100.00,NNE,13,2.0,4.0,94,-99.99,,,-99.99,,2013-01-15 06:02:00,
2013-01-14 23:12:00,-3.0,-4.0,-100.00,NNE,13,2.0,4.0,94,-99.99,,,-99.99,,2013-01-15 06:12:00,
2013-01-14 23:22:00,-2.0,-3.0,-100.00,NE,36,1.0,4.0,94,-99.99,,,-99.99,,2013-01-15 06:22:00,
2013-01-14 23:32:00,-3.0,-4.0,-100.00,NNE,13,1.0,3.0,94,-99.99,,,-99.99,,2013-01-15 06:32:00,
2013-01-14 23:42:00,-3.0,-4.0,-100.00,NNE,13,1.0,3.0,94,-99.99,,,-99.99,,2013-01-15 06:42:00,
2013-01-14 23:52:00,-4.0,-6.0,-100.00,NNE,12,1.0,3.0,93,-99.99,,,-99.99,,2013-01-15 06:52:00,